Time;durP1;ratioP1;P1;durP2;ratioP2;P2;SDS_P1;SDS_P2;PMS_P1;PMS_P2;Temp;Humidity;BMP_temperature;BMP_pressure;BME280_temperature;BME280_humidity;BME280_pressure;Samples;Min_cycle;Max_cycle;Signal;HPM_P1;HPM_P2
2024/01/16 00:02:12;;;;;;;2.88;2.67;;;;;;;;;;5020342;28;20040;-80
2024/01/16 00:04:39;;;;;;;4.95;3.00;;;;;;;;;;5025536;28;20665;-80
2024/01/16 00:07:05;;;;;;;3.47;2.83;;;;;;;;;;5021054;28;20129;-80
2024/01/16 00:09:34;;;;;;;5.43;2.85;;;;;;;;;;5027972;28;20038;-80
2024/01/16 00:12:00;;;;;;;4.15;3.47;;;;;;;;;;5042186;28;20126;-80
2024/01/16 00:14:25;;;;;;;2.88;2.33;;;;;;;;;;5022161;28;20457;-81
2024/01/16 00:16:51;;;;;;;6.97;3.28;;;;;;;;;;5016731;28;20053;-80
2024/01/16 00:19:16;;;;;;;3.63;2.97;;;;;;;;;;5018572;28;20030;-81
2024/01/16 00:21:45;;;;;;;1.40;1.38;;;;;;;;;;5036636;28;20055;-79
2024/01/16 00:24:10;;;;;;;7.22;4.50;;;;;;;;;;5015049;28;20026;-82
2024/01/16 00:26:36;;;;;;;4.93;3.70;;;;;;;;;;5019936;28;20385;-81
2024/01/16 00:29:01;;;;;;;4.15;2.13;;;;;;;;;;5027309;28;20070;-80
2024/01/16 00:31:26;;;;;;;1.73;1.63;;;;;;;;;;5030308;28;20030;-82
2024/01/16 00:33:52;;;;;;;1.25;1.08;;;;;;;;;;5006571;28;20406;-82
2024/01/16 00:53:13;;;;;;;5.72;3.47;;;;;;;;;;5049052;28;20392;-80
2024/01/16 00:55:39;;;;;;;5.25;3.97;;;;;;;;;;5047779;28;20091;-79
2024/01/16 00:58:04;;;;;;;2.95;2.67;;;;;;;;;;5047980;28;20078;-79
2024/01/16 01:00:31;;;;;;;6.75;3.95;;;;;;;;;;5046136;28;20729;-82
2024/01/16 01:02:58;;;;;;;7.47;3.13;;;;;;;;;;5045444;28;20025;-81
2024/01/16 01:05:28;;;;;;;1.27;1.17;;;;;;;;;;5046669;28;20026;-83
2024/01/16 01:07:55;;;;;;;3.03;2.40;;;;;;;;;;5046944;28;20091;-82
2024/01/16 01:10:20;;;;;;;10.52;4.50;;;;;;;;;;5049067;28;20037;-81
2024/01/16 01:12:45;;;;;;;2.13;1.95;;;;;;;;;;5045571;28;20510;-81
2024/01/16 01:15:11;;;;;;;4.30;3.17;;;;;;;;;;5045511;28;20384;-81
2024/01/16 01:17:37;;;;;;;4.18;2.20;;;;;;;;;;5046470;28;20385;-81
2024/01/16 01:20:03;;;;;;;3.22;2.97;;;;;;;;;;5047513;28;20029;-81
2024/01/16 01:22:28;;;;;;;7.20;3.13;;;;;;;;;;5045937;28;20024;-81
2024/01/16 01:24:54;;;;;;;7.30;2.78;;;;;;;;;;5044954;28;20025;-82
2024/01/16 01:27:19;;;;;;;3.85;2.67;;;;;;;;;;5047009;28;20032;-81
2024/01/16 01:29:45;;;;;;;1.90;1.70;;;;;;;;;;5047228;28;20124;-81
2024/01/16 01:32:10;;;;;;;6.80;2.78;;;;;;;;;;5046942;28;20025;-82
2024/01/16 01:34:36;;;;;;;8.75;3.35;;;;;;;;;;5046015;28;20040;-82
2024/01/16 01:37:01;;;;;;;4.30;2.97;;;;;;;;;;5046492;28;20029;-82
2024/01/16 01:39:27;;;;;;;2.78;2.38;;;;;;;;;;5046048;28;20028;-82
2024/01/16 01:41:52;;;;;;;2.75;1.70;;;;;;;;;;5050139;28;20111;-82
2024/01/16 01:44:17;;;;;;;3.50;2.30;;;;;;;;;;5044873;28;20052;-82
2024/01/16 01:46:44;;;;;;;7.10;2.47;;;;;;;;;;5046487;28;20060;-82
2024/01/16 01:49:12;;;;;;;3.47;2.15;;;;;;;;;;5046249;28;20025;-83
2024/01/16 01:51:37;;;;;;;4.43;2.03;;;;;;;;;;5045812;28;20057;-84
2024/01/16 01:54:03;;;;;;;2.25;1.42;;;;;;;;;;5034219;28;20036;-82
2024/01/16 01:56:28;;;;;;;3.20;1.70;;;;;;;;;;5031782;28;20036;-82
2024/01/16 01:58:57;;;;;;;5.50;2.35;;;;;;;;;;5032437;28;20040;-83
2024/01/16 02:01:24;;;;;;;2.72;1.45;;;;;;;;;;5033528;28;20032;-83
2024/01/16 02:03:50;;;;;;;3.35;2.15;;;;;;;;;;5032914;28;20619;-83
2024/01/16 02:06:16;;;;;;;2.22;2.03;;;;;;;;;;5030579;28;20096;-81
2024/01/16 02:08:42;;;;;;;1.00;0.98;;;;;;;;;;5031293;28;20148;-81
2024/01/16 02:11:08;;;;;;;1.63;1.25;;;;;;;;;;5030409;28;20103;-82
2024/01/16 02:13:34;;;;;;;3.55;1.15;;;;;;;;;;5032582;28;20069;-81
2024/01/16 02:15:59;;;;;;;1.70;1.60;;;;;;;;;;5031883;28;20032;-81
2024/01/16 02:18:25;;;;;;;1.30;1.13;;;;;;;;;;5031637;28;20039;-81
2024/01/16 02:20:50;;;;;;;2.40;1.60;;;;;;;;;;5028599;28;20027;-81
2024/01/16 02:23:26;;;;;;;0.35;0.35;;;;;;;;;;5030908;28;20048;-80
2024/01/16 02:25:51;;;;;;;2.13;1.50;;;;;;;;;;5061573;28;20028;-80
2024/01/16 02:28:17;;;;;;;0.80;0.80;;;;;;;;;;5031748;28;20451;-81
2024/01/16 02:30:42;;;;;;;0.85;0.70;;;;;;;;;;5031426;28;20729;-81
2024/01/16 02:33:08;;;;;;;2.05;1.30;;;;;;;;;;5031837;28;20112;-81
2024/01/16 02:35:33;;;;;;;0.88;0.80;;;;;;;;;;5031645;28;20025;-84
2024/01/16 02:38:00;;;;;;;2.00;0.85;;;;;;;;;;5030865;28;20067;-83
2024/01/16 02:40:26;;;;;;;2.80;1.75;;;;;;;;;;5032645;28;20499;-81
2024/01/16 02:42:51;;;;;;;2.00;1.13;;;;;;;;;;5029925;28;20091;-83
2024/01/16 02:45:17;;;;;;;1.70;1.23;;;;;;;;;;5031702;28;20457;-82
2024/01/16 02:47:42;;;;;;;0.80;0.80;;;;;;;;;;5031262;28;20025;-82
2024/01/16 02:50:09;;;;;;;1.02;0.90;;;;;;;;;;5030253;28;20059;-82
2024/01/16 02:52:35;;;;;;;2.95;1.48;;;;;;;;;;5032338;28;20042;-81
2024/01/16 02:55:01;;;;;;;1.45;0.70;;;;;;;;;;5032035;28;20044;-82
2024/01/16 02:57:26;;;;;;;1.27;1.00;;;;;;;;;;5031678;28;20083;-82
2024/01/16 02:59:51;;;;;;;1.38;0.90;;;;;;;;;;5030597;28;20681;-83
2024/01/16 03:02:17;;;;;;;0.80;0.63;;;;;;;;;;5031252;28;20029;-81
2024/01/16 03:04:42;;;;;;;0.73;0.63;;;;;;;;;;5028959;28;20049;-83
2024/01/16 03:07:08;;;;;;;2.70;2.50;;;;;;;;;;5030145;28;20112;-81
2024/01/16 03:09:33;;;;;;;2.67;2.13;;;;;;;;;;5030591;28;20025;-82
2024/01/16 03:11:59;;;;;;;1.58;0.88;;;;;;;;;;5030730;28;20034;-81
2024/01/16 03:14:25;;;;;;;5.30;2.78;;;;;;;;;;5030831;28;20037;-81
2024/01/16 03:16:50;;;;;;;1.40;1.30;;;;;;;;;;5030424;28;20030;-81
2024/01/16 03:19:16;;;;;;;2.67;1.98;;;;;;;;;;5029762;28;20184;-81
2024/01/16 03:21:42;;;;;;;3.50;3.17;;;;;;;;;;5031521;28;20025;-82
2024/01/16 03:24:10;;;;;;;1.10;1.08;;;;;;;;;;5030710;28;20425;-82
2024/01/16 03:26:37;;;;;;;8.90;2.97;;;;;;;;;;5031756;28;20369;-82
2024/01/16 03:29:02;;;;;;;9.23;3.08;;;;;;;;;;5029462;28;20031;-81
2024/01/16 03:31:28;;;;;;;3.08;2.10;;;;;;;;;;5031588;28;20108;-82
2024/01/16 03:33:53;;;;;;;3.22;2.30;;;;;;;;;;5028757;28;20037;-81
2024/01/16 03:36:19;;;;;;;0.50;0.50;;;;;;;;;;5030744;28;20502;-83
2024/01/16 03:38:44;;;;;;;12.70;2.63;;;;;;;;;;5029917;28;20021;-83
2024/01/16 03:41:13;;;;;;;1.17;1.10;;;;;;;;;;5030643;28;20109;-81
2024/01/16 03:43:40;;;;;;;1.73;1.52;;;;;;;;;;5029625;28;20092;-80
2024/01/16 03:46:05;;;;;;;0.60;0.60;;;;;;;;;;5030585;28;20027;-81
2024/01/16 03:48:30;;;;;;;1.52;0.95;;;;;;;;;;5029978;28;20041;-84
2024/01/16 03:50:56;;;;;;;6.28;1.08;;;;;;;;;;5029028;28;20037;-81
2024/01/16 03:53:22;;;;;;;5.68;1.98;;;;;;;;;;5030116;28;20033;-80
2024/01/16 03:55:48;;;;;;;1.70;1.60;;;;;;;;;;5029212;28;20029;-79
2024/01/16 03:58:13;;;;;;;5.68;1.77;;;;;;;;;;5029423;28;20082;-81
2024/01/16 04:00:39;;;;;;;1.00;0.75;;;;;;;;;;5028484;28;20040;-80
2024/01/16 04:03:05;;;;;;;0.88;0.88;;;;;;;;;;5029832;28;20056;-79
2024/01/16 04:05:30;;;;;;;0.50;0.50;;;;;;;;;;5028409;28;20029;-81
2024/01/16 04:07:57;;;;;;;0.60;0.60;;;;;;;;;;5029785;28;20074;-81
2024/01/16 04:10:22;;;;;;;1.00;1.00;;;;;;;;;;5029566;28;20036;-81
2024/01/16 04:12:47;;;;;;;2.25;2.15;;;;;;;;;;5027266;28;20424;-81
2024/01/16 04:15:13;;;;;;;1.52;1.30;;;;;;;;;;5028202;28;20086;-81
2024/01/16 04:17:38;;;;;;;0.65;0.65;;;;;;;;;;5028291;28;20029;-81
2024/01/16 04:20:06;;;;;;;1.63;1.52;;;;;;;;;;5029655;28;20500;-81
2024/01/16 04:22:32;;;;;;;0.77;0.77;;;;;;;;;;5028617;28;20503;-81
2024/01/16 04:24:58;;;;;;;0.80;0.47;;;;;;;;;;5030024;28;20100;-80
2024/01/16 04:27:25;;;;;;;1.30;1.15;;;;;;;;;;5028588;28;20099;-80
2024/01/16 04:29:50;;;;;;;0.70;0.70;;;;;;;;;;5029365;28;20032;-80
2024/01/16 04:32:19;;;;;;;0.85;0.85;;;;;;;;;;5027978;28;20029;-81
2024/01/16 04:34:44;;;;;;;2.28;1.95;;;;;;;;;;5028976;28;20044;-82
2024/01/16 04:37:10;;;;;;;0.77;0.77;;;;;;;;;;5028325;28;20030;-81
2024/01/16 04:39:35;;;;;;;0.68;0.68;;;;;;;;;;5029667;28;20104;-81
2024/01/16 04:42:00;;;;;;;1.52;1.42;;;;;;;;;;5029860;28;20029;-80
2024/01/16 04:44:26;;;;;;;1.85;1.75;;;;;;;;;;5029308;28;20025;-78
2024/01/16 04:46:52;;;;;;;0.88;0.88;;;;;;;;;;5029028;28;20029;-79
2024/01/16 04:49:18;;;;;;;2.15;1.50;;;;;;;;;;5030337;28;20028;-80
2024/01/16 04:51:43;;;;;;;1.23;0.70;;;;;;;;;;5026993;28;20030;-78
2024/01/16 04:54:10;;;;;;;1.13;1.08;;;;;;;;;;5029233;28;20057;-82
2024/01/16 04:56:35;;;;;;;1.27;1.08;;;;;;;;;;5030825;28;20057;-83
2024/01/16 04:59:01;;;;;;;1.30;1.25;;;;;;;;;;5029159;28;20458;-79
2024/01/16 05:01:26;;;;;;;0.45;0.45;;;;;;;;;;5029017;28;20045;-79
2024/01/16 05:03:51;;;;;;;1.25;0.80;;;;;;;;;;5029394;28;20025;-81
2024/01/16 05:06:17;;;;;;;1.10;1.00;;;;;;;;;;5027328;28;20060;-80
2024/01/16 05:08:43;;;;;;;0.40;0.40;;;;;;;;;;5027726;28;20017;-80
2024/01/16 05:11:09;;;;;;;0.40;0.40;;;;;;;;;;5025190;28;20033;-80
2024/01/16 05:13:34;;;;;;;0.52;0.52;;;;;;;;;;5028741;28;20690;-81
2024/01/16 05:16:00;;;;;;;0.80;0.80;;;;;;;;;;5028662;28;20040;-80
2024/01/16 05:18:25;;;;;;;0.90;0.90;;;;;;;;;;5027922;28;20037;-80
2024/01/16 05:20:51;;;;;;;0.77;0.52;;;;;;;;;;5028215;28;20377;-80
2024/01/16 05:23:17;;;;;;;1.05;1.05;;;;;;;;;;5027644;28;20034;-80
2024/01/16 05:25:43;;;;;;;0.20;0.20;;;;;;;;;;5029378;28;20021;-80
2024/01/16 05:28:08;;;;;;;0.68;0.68;;;;;;;;;;5031400;28;20112;-79
2024/01/16 05:30:34;;;;;;;1.65;1.05;;;;;;;;;;5031414;28;20044;-79
2024/01/16 05:33:00;;;;;;;1.33;1.25;;;;;;;;;;5032775;28;20033;-80
2024/01/16 05:35:28;;;;;;;1.75;1.35;;;;;;;;;;5031214;28;20029;-83
2024/01/16 05:37:55;;;;;;;1.50;1.40;;;;;;;;;;5032401;28;20469;-78
2024/01/16 05:40:21;;;;;;;1.23;1.10;;;;;;;;;;5032926;28;20033;-78
2024/01/16 05:42:48;;;;;;;0.43;0.35;;;;;;;;;;5032180;28;20022;-78
2024/01/16 05:45:14;;;;;;;0.35;0.35;;;;;;;;;;5030232;28;20075;-79
2024/01/16 05:47:39;;;;;;;0.93;0.93;;;;;;;;;;5033117;28;20041;-78
2024/01/16 05:50:06;;;;;;;1.08;0.70;;;;;;;;;;5032407;28;20033;-80
2024/01/16 05:52:31;;;;;;;0.50;0.50;;;;;;;;;;5031437;28;20042;-79
2024/01/16 05:54:59;;;;;;;0.40;0.40;;;;;;;;;;5032807;28;20052;-79
2024/01/16 05:57:25;;;;;;;0.63;0.63;;;;;;;;;;5031125;28;20515;-81
2024/01/16 05:59:50;;;;;;;0.40;0.40;;;;;;;;;;5031179;28;20033;-78
2024/01/16 06:02:15;;;;;;;1.13;0.85;;;;;;;;;;5032447;28;20064;-79
2024/01/16 06:04:41;;;;;;;0.60;0.60;;;;;;;;;;5032609;28;20032;-79
2024/01/16 06:07:09;;;;;;;0.25;0.25;;;;;;;;;;5031619;28;20025;-78
2024/01/16 06:09:43;;;;;;;0.45;0.45;;;;;;;;;;5031408;28;20029;-82
2024/01/16 06:12:09;;;;;;;0.60;0.60;;;;;;;;;;5029487;28;20083;-79
2024/01/16 06:14:38;;;;;;;3.05;1.73;;;;;;;;;;5032832;28;20021;-82
2024/01/16 06:17:05;;;;;;;0.40;0.40;;;;;;;;;;5030983;28;20025;-81
2024/01/16 06:19:31;;;;;;;0.73;0.73;;;;;;;;;;5029102;28;20033;-78
2024/01/16 06:21:56;;;;;;;0.40;0.40;;;;;;;;;;5029141;28;20034;-80
2024/01/16 06:24:22;;;;;;;1.75;0.50;;;;;;;;;;5029019;28;20026;-78
2024/01/16 06:26:47;;;;;;;0.57;0.57;;;;;;;;;;5029345;28;20037;-79
2024/01/16 06:29:13;;;;;;;1.55;0.93;;;;;;;;;;5028599;28;20484;-78
2024/01/16 06:31:38;;;;;;;0.30;0.30;;;;;;;;;;5029640;28;20037;-79
2024/01/16 06:34:04;;;;;;;0.25;0.25;;;;;;;;;;5029392;28;20043;-78
2024/01/16 06:36:29;;;;;;;0.90;0.47;;;;;;;;;;5029019;28;20033;-79
2024/01/16 06:38:54;;;;;;;0.50;0.50;;;;;;;;;;5029430;28;20488;-79
2024/01/16 06:41:20;;;;;;;0.30;0.30;;;;;;;;;;5028540;28;20057;-79
2024/01/16 06:43:46;;;;;;;0.25;0.25;;;;;;;;;;5030322;28;20034;-78
2024/01/16 06:46:11;;;;;;;0.30;0.30;;;;;;;;;;5028063;28;20033;-79
2024/01/16 06:48:38;;;;;;;0.40;0.40;;;;;;;;;;5029443;28;20104;-79
2024/01/16 06:51:04;;;;;;;0.20;0.20;;;;;;;;;;5028375;28;20113;-78
2024/01/16 06:53:29;;;;;;;0.30;0.30;;;;;;;;;;5028019;28;20556;-79
2024/01/16 06:55:55;;;;;;;0.38;0.38;;;;;;;;;;5029158;28;20028;-78
2024/01/16 06:58:20;;;;;;;0.45;0.25;;;;;;;;;;5029985;28;20021;-79
2024/01/16 07:00:47;;;;;;;1.90;0.47;;;;;;;;;;5028278;28;20158;-79
2024/01/16 07:03:13;;;;;;;0.32;0.32;;;;;;;;;;5028778;28;20064;-79
2024/01/16 07:05:40;;;;;;;1.38;1.30;;;;;;;;;;5027436;28;20144;-78
2024/01/16 07:08:06;;;;;;;0.30;0.30;;;;;;;;;;5027375;28;20064;-78
2024/01/16 07:10:32;;;;;;;0.30;0.30;;;;;;;;;;5027399;28;20061;-78
2024/01/16 07:12:57;;;;;;;0.50;0.50;;;;;;;;;;5028211;28;20099;-79
2024/01/16 07:15:23;;;;;;;0.50;0.50;;;;;;;;;;5027867;28;21677;-79
2024/01/16 07:17:48;;;;;;;0.52;0.52;;;;;;;;;;5029366;28;20076;-79
2024/01/16 07:20:14;;;;;;;0.60;0.60;;;;;;;;;;5029209;28;20508;-79
2024/01/16 07:22:39;;;;;;;0.60;0.60;;;;;;;;;;5030528;28;20092;-79
2024/01/16 07:25:06;;;;;;;0.47;0.45;;;;;;;;;;5027624;28;20603;-79
2024/01/16 07:27:31;;;;;;;0.55;0.55;;;;;;;;;;5028307;28;20060;-80
2024/01/16 07:29:56;;;;;;;0.20;0.20;;;;;;;;;;5029594;28;20068;-78
2024/01/16 07:32:22;;;;;;;0.28;0.28;;;;;;;;;;5029737;28;20041;-78
2024/01/16 07:34:48;;;;;;;0.40;0.40;;;;;;;;;;5029832;28;20036;-80
2024/01/16 07:37:13;;;;;;;0.32;0.32;;;;;;;;;;5029848;28;20053;-78
2024/01/16 07:39:42;;;;;;;0.30;0.30;;;;;;;;;;5029025;28;20120;-79
2024/01/16 07:42:08;;;;;;;0.30;0.30;;;;;;;;;;5027967;28;20036;-80
2024/01/16 07:44:33;;;;;;;0.38;0.38;;;;;;;;;;5028002;28;20041;-80
2024/01/16 07:46:58;;;;;;;0.20;0.20;;;;;;;;;;5029894;28;20083;-79
2024/01/16 07:49:24;;;;;;;0.20;0.20;;;;;;;;;;5029893;28;20033;-81
2024/01/16 07:51:49;;;;;;;0.40;0.40;;;;;;;;;;5027626;28;20054;-79
2024/01/16 07:54:15;;;;;;;0.50;0.50;;;;;;;;;;5029860;28;20106;-80
2024/01/16 07:56:40;;;;;;;0.75;0.47;;;;;;;;;;5027693;28;20021;-80
2024/01/16 07:59:06;;;;;;;0.63;0.63;;;;;;;;;;5026391;28;20116;-79
2024/01/16 08:01:32;;;;;;;0.30;0.30;;;;;;;;;;5029155;28;20048;-79
2024/01/16 08:03:58;;;;;;;0.20;0.20;;;;;;;;;;5059858;28;20061;-80
2024/01/16 08:06:23;;;;;;;0.30;0.30;;;;;;;;;;5028263;28;20037;-80
2024/01/16 08:08:49;;;;;;;0.70;0.43;;;;;;;;;;5029074;28;20041;-79
2024/01/16 08:11:15;;;;;;;0.68;0.40;;;;;;;;;;5028694;28;20061;-80
2024/01/16 08:13:40;;;;;;;0.20;0.20;;;;;;;;;;5027348;28;20496;-82
2024/01/16 08:16:06;;;;;;;0.47;0.47;;;;;;;;;;5026686;28;20040;-81
2024/01/16 08:18:32;;;;;;;0.30;0.30;;;;;;;;;;5028579;28;20079;-80
2024/01/16 08:20:57;;;;;;;0.32;0.32;;;;;;;;;;5027134;28;20029;-79
2024/01/16 08:23:23;;;;;;;0.30;0.30;;;;;;;;;;5028853;28;20519;-79
2024/01/16 08:25:48;;;;;;;0.30;0.30;;;;;;;;;;5028145;28;20802;-80
2024/01/16 08:28:14;;;;;;;0.40;0.40;;;;;;;;;;5026823;28;20037;-80
2024/01/16 08:30:40;;;;;;;0.40;0.40;;;;;;;;;;5025680;28;20644;-80
2024/01/16 08:33:07;;;;;;;0.30;0.30;;;;;;;;;;5028556;28;20033;-79
2024/01/16 08:35:32;;;;;;;0.40;0.40;;;;;;;;;;5028721;28;20362;-80
2024/01/16 08:37:58;;;;;;;0.45;0.45;;;;;;;;;;5027944;28;20087;-80
2024/01/16 08:40:24;;;;;;;0.55;0.55;;;;;;;;;;5029119;28;20393;-81
2024/01/16 08:42:54;;;;;;;0.40;0.40;;;;;;;;;;5028997;28;20025;-79
2024/01/16 08:45:21;;;;;;;0.20;0.20;;;;;;;;;;5027534;28;20029;-82
2024/01/16 08:47:47;;;;;;;0.73;0.50;;;;;;;;;;5027808;28;20384;-79
2024/01/16 08:50:12;;;;;;;0.32;0.32;;;;;;;;;;5027684;28;20032;-78
2024/01/16 08:52:38;;;;;;;0.38;0.38;;;;;;;;;;5028954;28;20771;-80
2024/01/16 08:55:04;;;;;;;0.50;0.50;;;;;;;;;;5028371;28;20108;-79
2024/01/16 08:57:29;;;;;;;0.50;0.50;;;;;;;;;;5025998;28;20488;-78
2024/01/16 08:59:55;;;;;;;0.10;0.10;;;;;;;;;;5029284;28;20033;-78
2024/01/16 09:02:21;;;;;;;1.40;0.77;;;;;;;;;;5028935;28;20074;-79
2024/01/16 09:04:47;;;;;;;0.28;0.28;;;;;;;;;;5032698;28;20041;-79
2024/01/16 09:07:15;;;;;;;0.35;0.35;;;;;;;;;;5032718;28;20035;-78
2024/01/16 09:09:42;;;;;;;0.30;0.30;;;;;;;;;;5032913;28;20114;-79
2024/01/16 09:12:10;;;;;;;0.60;0.60;;;;;;;;;;5029698;28;20030;-79
2024/01/16 09:14:36;;;;;;;0.50;0.50;;;;;;;;;;5032130;28;20025;-78
2024/01/16 09:17:02;;;;;;;0.70;0.70;;;;;;;;;;5032535;28;20060;-79
2024/01/16 09:19:29;;;;;;;0.95;0.95;;;;;;;;;;5032201;28;20584;-79
2024/01/16 09:21:54;;;;;;;1.40;0.82;;;;;;;;;;5032260;28;20100;-80
2024/01/16 09:24:20;;;;;;;1.23;0.63;;;;;;;;;;5032870;28;20104;-80
2024/01/16 09:26:45;;;;;;;0.98;0.50;;;;;;;;;;5029382;28;20021;-79
2024/01/16 09:29:11;;;;;;;0.20;0.20;;;;;;;;;;5030650;28;20030;-79
2024/01/16 09:31:36;;;;;;;0.25;0.25;;;;;;;;;;5032283;28;20112;-79
2024/01/16 09:34:03;;;;;;;1.25;1.00;;;;;;;;;;5029988;28;20032;-79
2024/01/16 09:36:29;;;;;;;1.63;1.35;;;;;;;;;;5030062;28;20021;-79
2024/01/16 09:38:54;;;;;;;1.33;1.25;;;;;;;;;;5029648;28;20444;-79
2024/01/16 09:41:20;;;;;;;0.20;0.20;;;;;;;;;;5031845;28;20032;-79
2024/01/16 09:43:47;;;;;;;0.75;0.75;;;;;;;;;;5030289;28;20035;-78
2024/01/16 09:46:15;;;;;;;0.30;0.30;;;;;;;;;;5031926;28;20040;-80
2024/01/16 09:48:43;;;;;;;0.20;0.20;;;;;;;;;;5031606;28;20421;-79
2024/01/16 09:51:09;;;;;;;0.77;0.77;;;;;;;;;;5031688;28;20045;-80
2024/01/16 09:53:35;;;;;;;0.77;0.77;;;;;;;;;;5031171;28;20508;-80
2024/01/16 09:56:03;;;;;;;0.30;0.30;;;;;;;;;;5029137;28;20053;-78
2024/01/16 09:58:34;;;;;;;0.30;0.30;;;;;;;;;;5030557;28;20021;-79
2024/01/16 10:00:59;;;;;;;0.80;0.70;;;;;;;;;;5030954;28;20071;-78
2024/01/16 10:03:26;;;;;;;0.50;0.50;;;;;;;;;;5029979;28;20137;-79
2024/01/16 10:05:52;;;;;;;0.30;0.30;;;;;;;;;;5031960;28;20033;-77
2024/01/16 10:08:21;;;;;;;0.43;0.43;;;;;;;;;;5031603;28;20032;-77
2024/01/16 10:10:47;;;;;;;0.40;0.40;;;;;;;;;;5031901;28;20164;-79
2024/01/16 10:13:14;;;;;;;0.43;0.43;;;;;;;;;;5030159;28;20120;-79
2024/01/16 10:15:40;;;;;;;0.77;0.77;;;;;;;;;;5030438;28;20025;-79
2024/01/16 10:18:12;;;;;;;0.40;0.40;;;;;;;;;;5031438;28;20074;-80
2024/01/16 10:20:39;;;;;;;0.20;0.20;;;;;;;;;;5030851;28;20037;-79
2024/01/16 10:23:05;;;;;;;0.50;0.50;;;;;;;;;;5030919;28;20028;-80
2024/01/16 10:25:31;;;;;;;0.90;0.90;;;;;;;;;;5029669;28;20033;-79
2024/01/16 10:28:04;;;;;;;0.55;0.55;;;;;;;;;;5031113;28;20409;-79
2024/01/16 10:30:30;;;;;;;0.60;0.60;;;;;;;;;;5026680;28;20029;-79
2024/01/16 10:32:57;;;;;;;0.47;0.47;;;;;;;;;;5030756;28;20503;-79
2024/01/16 10:35:22;;;;;;;0.38;0.38;;;;;;;;;;5029866;28;20092;-79
2024/01/16 10:37:56;;;;;;;2.17;0.60;;;;;;;;;;5029607;28;20489;-78
2024/01/16 10:40:26;;;;;;;0.40;0.40;;;;;;;;;;5028506;28;20021;-79
2024/01/16 10:42:58;;;;;;;1.90;0.63;;;;;;;;;;5030883;28;20025;-79
2024/01/16 10:45:24;;;;;;;0.30;0.30;;;;;;;;;;5027348;28;20032;-78
2024/01/16 10:48:09;;;;;;;0.68;0.52;;;;;;;;;;5029765;28;20033;-79
2024/01/16 10:50:37;;;;;;;0.22;0.22;;;;;;;;;;5029070;28;20037;-78
2024/01/16 10:53:07;;;;;;;0.38;0.38;;;;;;;;;;5029194;28;20099;-79
2024/01/16 10:55:43;;;;;;;0.88;0.82;;;;;;;;;;5028278;28;20033;-77
2024/01/16 10:58:09;;;;;;;2.30;0.70;;;;;;;;;;5027953;28;20045;-78
2024/01/16 11:00:37;;;;;;;0.63;0.63;;;;;;;;;;5029876;28;20040;-77
2024/01/16 11:03:10;;;;;;;0.70;0.70;;;;;;;;;;5026655;28;20014;-79
2024/01/16 11:05:37;;;;;;;0.45;0.40;;;;;;;;;;5027200;28;20377;-79
2024/01/16 11:08:04;;;;;;;0.32;0.32;;;;;;;;;;5027990;28;20022;-79
2024/01/16 11:10:31;;;;;;;0.70;0.70;;;;;;;;;;5027921;28;20037;-80
2024/01/16 11:13:00;;;;;;;2.05;1.08;;;;;;;;;;5027452;28;20472;-80
2024/01/16 11:15:28;;;;;;;0.50;0.50;;;;;;;;;;5026014;28;20049;-79
2024/01/16 11:17:57;;;;;;;1.38;1.27;;;;;;;;;;5028634;28;20095;-78
2024/01/16 11:20:23;;;;;;;0.40;0.40;;;;;;;;;;5028476;28;20033;-78
2024/01/16 11:22:50;;;;;;;0.77;0.77;;;;;;;;;;5029278;28;20426;-79
2024/01/16 11:25:18;;;;;;;0.52;0.52;;;;;;;;;;5028000;28;20354;-79
2024/01/16 11:27:47;;;;;;;0.28;0.28;;;;;;;;;;5029008;28;20033;-79
2024/01/16 11:30:31;;;;;;;0.40;0.40;;;;;;;;;;5029649;28;20535;-79
2024/01/16 11:32:56;;;;;;;0.38;0.38;;;;;;;;;;5028363;28;20041;-80
2024/01/16 11:35:36;;;;;;;0.52;0.52;;;;;;;;;;5030151;28;20029;-78
2024/01/16 11:38:21;;;;;;;0.65;0.65;;;;;;;;;;5028747;28;20141;-77
2024/01/16 11:40:48;;;;;;;0.47;0.47;;;;;;;;;;5027375;28;20022;-77
2024/01/16 11:43:32;;;;;;;0.30;0.30;;;;;;;;;;5031293;28;20385;-77
2024/01/16 11:45:58;;;;;;;0.30;0.30;;;;;;;;;;5030200;28;20025;-78
2024/01/16 11:48:25;;;;;;;0.88;0.60;;;;;;;;;;5031329;28;20040;-80
2024/01/16 11:50:52;;;;;;;0.50;0.50;;;;;;;;;;5029666;28;20060;-78
2024/01/16 11:53:30;;;;;;;0.40;0.40;;;;;;;;;;5029642;28;20045;-80
2024/01/16 11:56:16;;;;;;;0.52;0.52;;;;;;;;;;5030333;28;20418;-79
2024/01/16 11:59:09;;;;;;;1.65;1.48;;;;;;;;;;5028550;28;20044;-79
2024/01/16 12:01:36;;;;;;;0.60;0.60;;;;;;;;;;5029628;28;20055;-78
2024/01/16 12:04:03;;;;;;;3.67;0.93;;;;;;;;;;5027944;28;20029;-79
2024/01/16 12:06:28;;;;;;;0.20;0.20;;;;;;;;;;5028185;28;20052;-78
2024/01/16 12:08:54;;;;;;;0.45;0.45;;;;;;;;;;5030400;28;20025;-82
2024/01/16 12:11:19;;;;;;;0.30;0.30;;;;;;;;;;5031390;28;20457;-77
2024/01/16 12:14:01;;;;;;;0.50;0.50;;;;;;;;;;5029031;28;20041;-78
2024/01/16 12:16:27;;;;;;;0.88;0.85;;;;;;;;;;5028615;28;20029;-79
2024/01/16 12:19:08;;;;;;;0.40;0.40;;;;;;;;;;5028364;28;20021;-79
2024/01/16 12:21:40;;;;;;;0.43;0.43;;;;;;;;;;5027688;28;20025;-78
2024/01/16 12:24:06;;;;;;;2.83;1.83;;;;;;;;;;5028943;28;20144;-79
2024/01/16 12:26:32;;;;;;;1.75;1.15;;;;;;;;;;5028803;28;20079;-78
2024/01/16 12:28:58;;;;;;;0.20;0.20;;;;;;;;;;5028645;28;20453;-79
2024/01/16 12:31:24;;;;;;;1.08;0.90;;;;;;;;;;5025943;28;20031;-78
2024/01/16 12:33:51;;;;;;;1.45;1.00;;;;;;;;;;5029177;28;20036;-81
2024/01/16 12:36:17;;;;;;;0.47;0.47;;;;;;;;;;5031057;28;20377;-79
2024/01/16 12:38:42;;;;;;;0.40;0.40;;;;;;;;;;5028108;28;20109;-79
2024/01/16 12:41:10;;;;;;;0.25;0.25;;;;;;;;;;5028638;28;20441;-79
2024/01/16 12:43:36;;;;;;;0.52;0.52;;;;;;;;;;5027429;28;20033;-81
2024/01/16 12:46:02;;;;;;;1.60;0.85;;;;;;;;;;5031065;28;20477;-79
2024/01/16 12:48:28;;;;;;;1.42;1.33;;;;;;;;;;5027359;28;20033;-79
2024/01/16 12:51:06;;;;;;;0.65;0.65;;;;;;;;;;5030044;28;20041;-79
2024/01/16 12:53:39;;;;;;;1.45;0.80;;;;;;;;;;5028931;28;20100;-79
2024/01/16 12:56:05;;;;;;;0.60;0.60;;;;;;;;;;5029729;28;20030;-78
2024/01/16 12:58:35;;;;;;;0.43;0.43;;;;;;;;;;5029969;28;20021;-79
2024/01/16 13:01:27;;;;;;;0.40;0.40;;;;;;;;;;5030123;28;20021;-78
2024/01/16 13:03:53;;;;;;;0.68;0.68;;;;;;;;;;5026403;28;20731;-79
2024/01/16 13:06:20;;;;;;;0.30;0.30;;;;;;;;;;5041133;28;20112;-78
2024/01/16 13:08:47;;;;;;;0.60;0.60;;;;;;;;;;5026905;28;20029;-81
2024/01/16 13:11:15;;;;;;;0.70;0.68;;;;;;;;;;5028828;28;20029;-80
2024/01/16 13:13:41;;;;;;;0.50;0.50;;;;;;;;;;5028551;28;20041;-79
2024/01/16 13:16:07;;;;;;;0.47;0.47;;;;;;;;;;5029363;28;20022;-79
2024/01/16 13:18:33;;;;;;;0.80;0.80;;;;;;;;;;5028148;28;20108;-78
2024/01/16 13:21:00;;;;;;;0.20;0.20;;;;;;;;;;5027541;28;20026;-80
2024/01/16 13:23:27;;;;;;;0.43;0.43;;;;;;;;;;5028042;28;20043;-78
2024/01/16 13:25:59;;;;;;;1.10;1.00;;;;;;;;;;5026955;28;20048;-79
2024/01/16 13:28:24;;;;;;;0.50;0.50;;;;;;;;;;5026281;28;20025;-78
2024/01/16 13:30:50;;;;;;;0.50;0.50;;;;;;;;;;5029748;28;20047;-78
2024/01/16 13:33:16;;;;;;;1.95;0.55;;;;;;;;;;5027150;28;20041;-79
2024/01/16 13:35:44;;;;;;;1.20;1.15;;;;;;;;;;5026349;28;20029;-79
2024/01/16 13:38:11;;;;;;;1.60;0.82;;;;;;;;;;5028974;28;20504;-79
2024/01/16 13:40:40;;;;;;;0.63;0.63;;;;;;;;;;5028094;28;20385;-78
2024/01/16 13:43:08;;;;;;;1.53;1.00;;;;;;;;;;5026489;28;20034;-79
2024/01/16 13:45:35;;;;;;;1.23;1.13;;;;;;;;;;5030964;28;20032;-79
2024/01/16 13:48:02;;;;;;;2.97;2.05;;;;;;;;;;5030610;28;20031;-79
2024/01/16 13:50:27;;;;;;;1.02;0.77;;;;;;;;;;5049117;28;20074;-78
2024/01/16 13:52:56;;;;;;;0.50;0.50;;;;;;;;;;5035361;28;20053;-78
2024/01/16 13:55:21;;;;;;;4.70;1.92;;;;;;;;;;5035264;28;20510;-79
2024/01/16 13:57:46;;;;;;;0.98;0.80;;;;;;;;;;5036086;28;20021;-79
2024/01/16 14:00:15;;;;;;;1.13;0.65;;;;;;;;;;5031405;28;20083;-80
2024/01/16 14:02:44;;;;;;;5.72;1.38;;;;;;;;;;5031188;28;20516;-78
2024/01/16 14:05:17;;;;;;;0.98;0.98;;;;;;;;;;5032596;28;20057;-80
2024/01/16 14:07:51;;;;;;;0.60;0.60;;;;;;;;;;5032382;28;20424;-80
2024/01/16 14:10:21;;;;;;;0.88;0.88;;;;;;;;;;5035787;28;20032;-79
2024/01/16 14:12:48;;;;;;;2.47;1.58;;;;;;;;;;5033342;28;20061;-79
2024/01/16 14:15:16;;;;;;;2.05;1.27;;;;;;;;;;5031280;28;20026;-79
2024/01/16 14:17:48;;;;;;;2.85;0.82;;;;;;;;;;5028444;28;20037;-78
2024/01/16 14:20:15;;;;;;;0.77;0.77;;;;;;;;;;5028949;28;20091;-81
2024/01/16 14:22:41;;;;;;;0.65;0.65;;;;;;;;;;5029273;28;20443;-80
2024/01/16 14:25:11;;;;;;;1.80;1.65;;;;;;;;;;5031381;28;20061;-80
2024/01/16 14:27:38;;;;;;;1.15;0.98;;;;;;;;;;5029799;28;20045;-79
2024/01/16 14:30:07;;;;;;;0.82;0.82;;;;;;;;;;5025689;28;20041;-79
2024/01/16 14:32:32;;;;;;;1.05;0.98;;;;;;;;;;5025466;28;20029;-81
2024/01/16 14:34:58;;;;;;;2.40;1.60;;;;;;;;;;5031535;28;20037;-80
2024/01/16 14:37:23;;;;;;;0.98;0.90;;;;;;;;;;5031000;28;21153;-81
2024/01/16 14:39:49;;;;;;;0.50;0.50;;;;;;;;;;5030007;28;20068;-79
2024/01/16 14:42:14;;;;;;;1.63;1.52;;;;;;;;;;5030440;28;20055;-80
2024/01/16 14:44:40;;;;;;;0.93;0.82;;;;;;;;;;5031399;28;20038;-80
2024/01/16 14:47:05;;;;;;;0.85;0.85;;;;;;;;;;5029116;28;20029;-80
2024/01/16 14:49:32;;;;;;;3.72;1.58;;;;;;;;;;5029070;28;20033;-80
2024/01/16 14:51:59;;;;;;;4.32;2.30;;;;;;;;;;5029862;28;20512;-80
2024/01/16 14:54:24;;;;;;;7.03;1.63;;;;;;;;;;5034643;28;20021;-81
2024/01/16 14:56:50;;;;;;;1.27;1.17;;;;;;;;;;5026633;28;20033;-80
2024/01/16 14:59:15;;;;;;;1.70;1.58;;;;;;;;;;5029036;28;20116;-79